sensor_id;sensor_type;location;lat;lon;timestamp;pressure;altitude;pressure_sealevel;temperature;humidity
15674;BME280;7937;48.090;16.212;2023-12-07T00:02:09;97705.22;;;0.76;100.00
15674;BME280;7937;48.090;16.212;2023-12-07T00:05:11;97713.91;;;1.06;100.00
15674;BME280;7937;48.090;16.212;2023-12-07T00:08:13;97706.31;;;0.96;100.00
15674;BME280;7937;48.090;16.212;2023-12-07T00:11:15;97714.63;;;0.85;100.00
15674;BME280;7937;48.090;16.212;2023-12-07T00:14:17;97705.31;;;1.12;100.00
15674;BME280;7937;48.090;16.212;2023-12-07T00:17:19;97714.09;;;1.05;100.00
15674;BME280;7937;48.090;16.212;2023-12-07T00:20:21;97703.06;;;1.09;100.00
15674;BME280;7937;48.090;16.212;2023-12-07T00:23:23;97713.72;;;0.93;100.00
15674;BME280;7937;48.090;16.212;2023-12-07T00:26:25;97705.69;;;0.80;100.00
15674;BME280;7937;48.090;16.212;2023-12-07T00:29:28;97720.03;;;0.84;100.00
15674;BME280;7937;48.090;16.212;2023-12-07T00:32:30;97717.41;;;0.98;100.00
15674;BME280;7937;48.090;16.212;2023-12-07T00:35:32;97720.97;;;0.91;100.00
15674;BME280;7937;48.090;16.212;2023-12-07T00:38:34;97722.22;;;0.80;100.00
15674;BME280;7937;48.090;16.212;2023-12-07T00:41:37;97723.28;;;0.71;100.00
15674;BME280;7937;48.090;16.212;2023-12-07T00:44:42;97729.25;;;0.65;100.00
15674;BME280;7937;48.090;16.212;2023-12-07T00:47:44;97724.16;;;0.63;100.00
15674;BME280;7937;48.090;16.212;2023-12-07T00:50:46;97726.34;;;0.60;100.00
15674;BME280;7937;48.090;16.212;2023-12-07T00:53:49;97732.22;;;0.62;100.00
15674;BME280;7937;48.090;16.212;2023-12-07T00:56:51;97732.88;;;0.78;100.00
15674;BME280;7937;48.090;16.212;2023-12-07T00:59:53;97739.47;;;0.74;100.00
15674;BME280;7937;48.090;16.212;2023-12-07T01:02:55;97735.47;;;0.78;100.00
15674;BME280;7937;48.090;16.212;2023-12-07T01:05:57;97738.13;;;0.93;100.00
15674;BME280;7937;48.090;16.212;2023-12-07T01:08:59;97741.69;;;1.30;100.00
15674;BME280;7937;48.090;16.212;2023-12-07T01:12:01;97739.53;;;1.19;100.00
15674;BME280;7937;48.090;16.212;2023-12-07T01:15:04;97740.41;;;1.11;100.00
15674;BME280;7937;48.090;16.212;2023-12-07T01:18:06;97735.16;;;1.26;100.00
15674;BME280;7937;48.090;16.212;2023-12-07T01:21:08;97749.38;;;1.46;100.00
15674;BME280;7937;48.090;16.212;2023-12-07T01:24:10;97755.28;;;1.48;100.00
15674;BME280;7937;48.090;16.212;2023-12-07T01:27:17;97757.44;;;1.60;100.00
15674;BME280;7937;48.090;16.212;2023-12-07T01:30:19;97760.66;;;1.62;100.00
15674;BME280;7937;48.090;16.212;2023-12-07T01:33:22;97760.34;;;1.50;100.00
15674;BME280;7937;48.090;16.212;2023-12-07T01:36:24;97770.28;;;1.69;100.00
15674;BME280;7937;48.090;16.212;2023-12-07T01:39:27;97763.41;;;1.39;100.00
15674;BME280;7937;48.090;16.212;2023-12-07T01:42:31;97760.88;;;1.31;100.00
15674;BME280;7937;48.090;16.212;2023-12-07T01:45:34;97768.28;;;1.27;100.00
15674;BME280;7937;48.090;16.212;2023-12-07T01:48:36;97774.88;;;1.67;100.00
15674;BME280;7937;48.090;16.212;2023-12-07T01:51:39;97769.72;;;1.74;100.00
15674;BME280;7937;48.090;16.212;2023-12-07T01:54:41;97774.59;;;1.62;100.00
15674;BME280;7937;48.090;16.212;2023-12-07T01:57:44;97774.53;;;1.70;100.00
15674;BME280;7937;48.090;16.212;2023-12-07T02:00:47;97765.63;;;1.71;100.00
15674;BME280;7937;48.090;16.212;2023-12-07T02:03:50;97773.91;;;1.68;100.00
15674;BME280;7937;48.090;16.212;2023-12-07T02:06:54;97773.25;;;1.66;100.00
15674;BME280;7937;48.090;16.212;2023-12-07T02:09:58;97772.72;;;1.56;100.00
15674;BME280;7937;48.090;16.212;2023-12-07T02:13:01;97750.19;;;1.47;100.00
15674;BME280;7937;48.090;16.212;2023-12-07T02:23:03;97780.41;;;1.43;100.00
15674;BME280;7937;48.090;16.212;2023-12-07T02:26:06;97765.78;;;1.48;100.00
15674;BME280;7937;48.090;16.212;2023-12-07T02:29:10;97770.91;;;1.42;100.00
15674;BME280;7937;48.090;16.212;2023-12-07T02:32:12;97773.81;;;1.32;100.00
15674;BME280;7937;48.090;16.212;2023-12-07T02:35:15;97781.41;;;1.42;100.00
15674;BME280;7937;48.090;16.212;2023-12-07T02:38:18;97781.59;;;1.55;100.00
15674;BME280;7937;48.090;16.212;2023-12-07T02:41:22;97755.63;;;1.16;100.00
15674;BME280;7937;48.090;16.212;2023-12-07T02:44:26;97792.72;;;1.42;100.00
15674;BME280;7937;48.090;16.212;2023-12-07T02:47:28;97795.81;;;1.31;100.00
15674;BME280;7937;48.090;16.212;2023-12-07T02:50:30;97788.41;;;1.35;100.00
15674;BME280;7937;48.090;16.212;2023-12-07T02:53:32;97787.03;;;1.68;100.00
15674;BME280;7937;48.090;16.212;2023-12-07T02:56:34;97791.09;;;1.56;100.00
15674;BME280;7937;48.090;16.212;2023-12-07T02:59:36;97774.19;;;1.29;100.00
15674;BME280;7937;48.090;16.212;2023-12-07T03:02:39;97791.91;;;1.27;100.00
15674;BME280;7937;48.090;16.212;2023-12-07T03:05:41;97790.75;;;1.44;100.00
15674;BME280;7937;48.090;16.212;2023-12-07T03:08:43;97783.16;;;1.49;100.00
15674;BME280;7937;48.090;16.212;2023-12-07T03:11:45;97784.31;;;1.32;100.00
15674;BME280;7937;48.090;16.212;2023-12-07T03:14:48;97794.09;;;1.53;100.00
15674;BME280;7937;48.090;16.212;2023-12-07T03:17:50;97770.03;;;1.35;100.00
15674;BME280;7937;48.090;16.212;2023-12-07T03:20:52;97798.16;;;1.41;100.00
15674;BME280;7937;48.090;16.212;2023-12-07T03:23:55;97808.56;;;1.34;100.00
15674;BME280;7937;48.090;16.212;2023-12-07T03:26:57;97800.31;;;1.37;100.00
15674;BME280;7937;48.090;16.212;2023-12-07T03:29:59;97802.88;;;1.45;100.00
15674;BME280;7937;48.090;16.212;2023-12-07T03:33:01;97792.63;;;1.36;100.00
15674;BME280;7937;48.090;16.212;2023-12-07T03:36:04;97811.38;;;1.62;100.00
15674;BME280;7937;48.090;16.212;2023-12-07T03:39:06;97806.84;;;1.41;100.00
15674;BME280;7937;48.090;16.212;2023-12-07T03:42:09;97806.50;;;1.44;100.00
15674;BME280;7937;48.090;16.212;2023-12-07T03:45:32;97818.59;;;1.31;100.00
15674;BME280;7937;48.090;16.212;2023-12-07T03:48:34;97827.22;;;1.39;100.00
15674;BME280;7937;48.090;16.212;2023-12-07T03:51:37;97842.78;;;1.41;100.00
15674;BME280;7937;48.090;16.212;2023-12-07T03:54:41;97839.88;;;1.36;100.00
15674;BME280;7937;48.090;16.212;2023-12-07T03:57:45;97838.34;;;1.56;100.00
15674;BME280;7937;48.090;16.212;2023-12-07T04:00:47;97843.88;;;1.61;100.00
15674;BME280;7937;48.090;16.212;2023-12-07T04:03:50;97846.88;;;1.43;100.00
15674;BME280;7937;48.090;16.212;2023-12-07T04:06:52;97842.22;;;1.31;100.00
15674;BME280;7937;48.090;16.212;2023-12-07T04:09:54;97841.41;;;1.30;100.00
15674;BME280;7937;48.090;16.212;2023-12-07T04:12:57;97846.88;;;1.43;100.00
15674;BME280;7937;48.090;16.212;2023-12-07T04:15:59;97841.25;;;1.46;100.00
15674;BME280;7937;48.090;16.212;2023-12-07T04:19:01;97849.88;;;1.70;100.00
15674;BME280;7937;48.090;16.212;2023-12-07T04:22:04;97866.88;;;1.44;100.00
15674;BME280;7937;48.090;16.212;2023-12-07T04:25:07;97856.69;;;1.26;100.00
15674;BME280;7937;48.090;16.212;2023-12-07T04:28:09;97874.16;;;1.19;100.00
15674;BME280;7937;48.090;16.212;2023-12-07T04:31:11;97867.84;;;1.28;100.00
15674;BME280;7937;48.090;16.212;2023-12-07T04:34:14;97872.25;;;1.28;100.00
15674;BME280;7937;48.090;16.212;2023-12-07T04:37:16;97880.97;;;1.28;100.00
15674;BME280;7937;48.090;16.212;2023-12-07T04:40:19;97884.00;;;1.55;100.00
15674;BME280;7937;48.090;16.212;2023-12-07T04:43:21;97866.41;;;1.41;100.00
15674;BME280;7937;48.090;16.212;2023-12-07T04:46:23;97896.22;;;1.48;100.00
15674;BME280;7937;48.090;16.212;2023-12-07T04:49:26;97903.50;;;1.38;100.00
15674;BME280;7937;48.090;16.212;2023-12-07T04:52:28;97899.00;;;1.46;100.00
15674;BME280;7937;48.090;16.212;2023-12-07T04:55:33;97892.66;;;1.41;100.00
15674;BME280;7937;48.090;16.212;2023-12-07T04:58:41;97798.53;;;0.85;100.00
15674;BME280;7937;48.090;16.212;2023-12-07T05:01:47;97907.91;;;1.60;100.00
15674;BME280;7937;48.090;16.212;2023-12-07T05:04:49;97910.69;;;1.44;100.00
15674;BME280;7937;48.090;16.212;2023-12-07T05:07:52;97901.31;;;1.26;100.00
15674;BME280;7937;48.090;16.212;2023-12-07T05:10:54;97922.66;;;1.23;100.00
15674;BME280;7937;48.090;16.212;2023-12-07T05:13:57;97914.31;;;1.20;100.00
15674;BME280;7937;48.090;16.212;2023-12-07T05:16:59;97923.50;;;1.24;100.00
15674;BME280;7937;48.090;16.212;2023-12-07T05:20:02;97921.78;;;1.08;100.00
15674;BME280;7937;48.090;16.212;2023-12-07T05:23:07;97921.28;;;0.90;100.00
15674;BME280;7937;48.090;16.212;2023-12-07T05:26:09;97938.16;;;0.87;100.00
15674;BME280;7937;48.090;16.212;2023-12-07T05:29:13;97939.50;;;1.06;100.00
15674;BME280;7937;48.090;16.212;2023-12-07T05:32:15;97938.41;;;1.00;100.00
15674;BME280;7937;48.090;16.212;2023-12-07T05:35:17;97946.81;;;0.96;100.00
15674;BME280;7937;48.090;16.212;2023-12-07T05:38:19;97933.50;;;0.74;100.00
15674;BME280;7937;48.090;16.212;2023-12-07T05:41:21;97951.69;;;0.76;100.00
15674;BME280;7937;48.090;16.212;2023-12-07T05:44:23;97948.09;;;0.69;100.00
15674;BME280;7937;48.090;16.212;2023-12-07T05:47:26;97933.47;;;0.43;100.00
15674;BME280;7937;48.090;16.212;2023-12-07T05:50:28;97956.31;;;0.66;100.00
15674;BME280;7937;48.090;16.212;2023-12-07T05:53:30;97964.97;;;0.74;100.00
15674;BME280;7937;48.090;16.212;2023-12-07T05:56:35;97963.31;;;0.73;100.00
15674;BME280;7937;48.090;16.212;2023-12-07T05:59:38;97966.94;;;0.72;100.00
15674;BME280;7937;48.090;16.212;2023-12-07T06:02:40;97970.72;;;0.70;100.00
15674;BME280;7937;48.090;16.212;2023-12-07T06:05:43;97977.47;;;0.64;100.00
15674;BME280;7937;48.090;16.212;2023-12-07T06:08:47;97975.78;;;0.71;100.00
15674;BME280;7937;48.090;16.212;2023-12-07T06:11:49;97975.28;;;0.76;100.00
15674;BME280;7937;48.090;16.212;2023-12-07T06:14:51;97981.38;;;0.99;100.00
15674;BME280;7937;48.090;16.212;2023-12-07T06:17:54;97989.59;;;0.96;100.00
15674;BME280;7937;48.090;16.212;2023-12-07T06:20:56;97992.69;;;1.00;100.00
15674;BME280;7937;48.090;16.212;2023-12-07T06:23:58;97982.22;;;0.92;100.00
15674;BME280;7937;48.090;16.212;2023-12-07T06:27:02;97991.69;;;1.01;100.00
15674;BME280;7937;48.090;16.212;2023-12-07T06:30:07;97996.53;;;1.12;100.00
15674;BME280;7937;48.090;16.212;2023-12-07T06:33:09;97967.97;;;1.17;100.00
15674;BME280;7937;48.090;16.212;2023-12-07T06:36:18;97999.59;;;1.24;100.00
15674;BME280;7937;48.090;16.212;2023-12-07T06:39:20;98002.47;;;1.06;100.00
15674;BME280;7937;48.090;16.212;2023-12-07T06:42:22;97997.13;;;0.99;100.00
15674;BME280;7937;48.090;16.212;2023-12-07T06:45:24;98015.69;;;0.90;100.00
15674;BME280;7937;48.090;16.212;2023-12-07T06:48:27;97989.53;;;0.73;100.00
15674;BME280;7937;48.090;16.212;2023-12-07T06:51:29;97938.06;;;0.49;100.00
15674;BME280;7937;48.090;16.212;2023-12-07T06:54:31;98005.69;;;1.16;100.00
15674;BME280;7937;48.090;16.212;2023-12-07T06:57:33;98009.00;;;1.10;100.00
15674;BME280;7937;48.090;16.212;2023-12-07T07:00:35;98019.91;;;0.99;100.00
15674;BME280;7937;48.090;16.212;2023-12-07T07:03:38;98016.25;;;1.31;100.00
15674;BME280;7937;48.090;16.212;2023-12-07T07:06:41;98021.16;;;1.34;100.00
15674;BME280;7937;48.090;16.212;2023-12-07T07:09:43;98032.53;;;1.26;100.00
15674;BME280;7937;48.090;16.212;2023-12-07T07:12:45;98027.84;;;1.37;100.00
15674;BME280;7937;48.090;16.212;2023-12-07T07:15:47;98027.44;;;1.25;100.00
15674;BME280;7937;48.090;16.212;2023-12-07T07:18:49;98031.66;;;1.34;100.00
15674;BME280;7937;48.090;16.212;2023-12-07T07:21:51;98029.47;;;1.38;100.00
15674;BME280;7937;48.090;16.212;2023-12-07T07:24:54;98026.78;;;1.23;100.00
15674;BME280;7937;48.090;16.212;2023-12-07T07:27:56;98031.81;;;1.33;100.00
15674;BME280;7937;48.090;16.212;2023-12-07T07:30:58;98041.06;;;1.28;100.00
15674;BME280;7937;48.090;16.212;2023-12-07T07:34:00;98024.06;;;1.16;100.00
15674;BME280;7937;48.090;16.212;2023-12-07T07:37:03;98009.19;;;1.09;100.00
15674;BME280;7937;48.090;16.212;2023-12-07T07:40:05;98048.84;;;1.14;100.00
15674;BME280;7937;48.090;16.212;2023-12-07T07:43:09;98037.88;;;1.10;100.00
15674;BME280;7937;48.090;16.212;2023-12-07T07:46:11;98060.00;;;1.08;100.00
15674;BME280;7937;48.090;16.212;2023-12-07T07:49:13;98057.25;;;1.01;100.00
15674;BME280;7937;48.090;16.212;2023-12-07T07:52:15;98030.66;;;0.81;100.00
15674;BME280;7937;48.090;16.212;2023-12-07T07:55:17;98059.34;;;1.14;100.00
15674;BME280;7937;48.090;16.212;2023-12-07T07:58:20;98072.06;;;1.25;100.00
15674;BME280;7937;48.090;16.212;2023-12-07T08:01:22;98068.03;;;1.14;100.00
15674;BME280;7937;48.090;16.212;2023-12-07T08:04:24;98064.72;;;1.20;100.00
15674;BME280;7937;48.090;16.212;2023-12-07T08:07:26;98065.72;;;1.19;100.00
15674;BME280;7937;48.090;16.212;2023-12-07T08:10:29;98060.81;;;1.39;100.00
15674;BME280;7937;48.090;16.212;2023-12-07T08:13:31;98057.03;;;1.42;100.00
15674;BME280;7937;48.090;16.212;2023-12-07T08:16:33;98064.59;;;1.37;100.00
15674;BME280;7937;48.090;16.212;2023-12-07T08:19:36;98063.09;;;1.42;100.00
15674;BME280;7937;48.090;16.212;2023-12-07T08:22:39;98055.09;;;1.36;100.00
15674;BME280;7937;48.090;16.212;2023-12-07T08:25:43;98070.09;;;1.50;100.00
15674;BME280;7937;48.090;16.212;2023-12-07T08:28:45;98063.66;;;1.52;100.00
15674;BME280;7937;48.090;16.212;2023-12-07T08:31:48;98027.94;;;1.28;100.00
15674;BME280;7937;48.090;16.212;2023-12-07T08:34:51;98066.91;;;1.63;99.69
15674;BME280;7937;48.090;16.212;2023-12-07T08:37:53;98074.84;;;1.54;100.00
15674;BME280;7937;48.090;16.212;2023-12-07T08:40:55;98071.25;;;1.47;100.00
15674;BME280;7937;48.090;16.212;2023-12-07T08:43:57;98073.72;;;1.49;100.00
15674;BME280;7937;48.090;16.212;2023-12-07T08:47:00;98079.91;;;1.56;100.00
15674;BME280;7937;48.090;16.212;2023-12-07T08:50:02;98079.84;;;1.64;100.00
15674;BME280;7937;48.090;16.212;2023-12-07T08:53:04;98073.41;;;1.67;100.00
15674;BME280;7937;48.090;16.212;2023-12-07T08:56:07;98077.09;;;1.80;98.84
15674;BME280;7937;48.090;16.212;2023-12-07T08:59:09;98071.75;;;1.74;100.00
15674;BME280;7937;48.090;16.212;2023-12-07T09:02:11;98079.59;;;1.97;96.41
15674;BME280;7937;48.090;16.212;2023-12-07T09:05:14;98092.66;;;1.82;97.05
15674;BME280;7937;48.090;16.212;2023-12-07T09:08:16;98083.88;;;1.75;97.76
15674;BME280;7937;48.090;16.212;2023-12-07T09:11:19;98094.19;;;1.99;96.04
15674;BME280;7937;48.090;16.212;2023-12-07T09:14:21;98093.66;;;2.04;96.68
15674;BME280;7937;48.090;16.212;2023-12-07T09:17:23;98082.28;;;2.26;94.60
15674;BME280;7937;48.090;16.212;2023-12-07T09:20:26;98096.34;;;2.33;93.85
15674;BME280;7937;48.090;16.212;2023-12-07T09:23:28;98081.50;;;2.55;92.48
15674;BME280;7937;48.090;16.212;2023-12-07T09:26:31;98083.31;;;2.70;91.50
15674;BME280;7937;48.090;16.212;2023-12-07T09:29:33;98089.94;;;2.95;89.48
15674;BME280;7937;48.090;16.212;2023-12-07T09:32:35;98072.78;;;2.99;88.89
15674;BME280;7937;48.090;16.212;2023-12-07T09:35:40;98070.13;;;2.99;87.48
15674;BME280;7937;48.090;16.212;2023-12-07T09:38:42;98072.16;;;2.97;88.58
15674;BME280;7937;48.090;16.212;2023-12-07T09:41:44;98066.41;;;3.08;87.19
15674;BME280;7937;48.090;16.212;2023-12-07T09:44:49;98061.16;;;2.94;88.51
15674;BME280;7937;48.090;16.212;2023-12-07T09:47:53;98044.66;;;2.85;89.13
15674;BME280;7937;48.090;16.212;2023-12-07T09:50:56;98063.44;;;2.97;87.61
15674;BME280;7937;48.090;16.212;2023-12-07T09:53:59;98063.19;;;2.92;88.61
15674;BME280;7937;48.090;16.212;2023-12-07T09:57:01;98056.66;;;2.88;87.34
15674;BME280;7937;48.090;16.212;2023-12-07T10:00:04;98055.38;;;2.69;89.53
15674;BME280;7937;48.090;16.212;2023-12-07T10:03:07;98057.00;;;2.84;88.85
15674;BME280;7937;48.090;16.212;2023-12-07T10:06:23;98053.56;;;2.84;88.63
15674;BME280;7937;48.090;16.212;2023-12-07T10:09:25;98034.06;;;2.78;88.46
15674;BME280;7937;48.090;16.212;2023-12-07T10:12:35;98043.28;;;2.89;89.65
15674;BME280;7937;48.090;16.212;2023-12-07T10:15:37;98041.88;;;2.87;89.30
15674;BME280;7937;48.090;16.212;2023-12-07T10:18:40;98038.31;;;2.79;89.91
15674;BME280;7937;48.090;16.212;2023-12-07T10:21:45;98045.03;;;2.82;89.68
15674;BME280;7937;48.090;16.212;2023-12-07T10:24:47;98037.69;;;2.77;90.45
15674;BME280;7937;48.090;16.212;2023-12-07T10:27:50;98044.41;;;2.80;89.88
15674;BME280;7937;48.090;16.212;2023-12-07T10:30:52;98028.72;;;2.87;88.02
15674;BME280;7937;48.090;16.212;2023-12-07T10:33:54;98030.25;;;2.81;89.94
15674;BME280;7937;48.090;16.212;2023-12-07T10:36:56;98037.97;;;2.82;90.56
15674;BME280;7937;48.090;16.212;2023-12-07T10:40:00;98038.97;;;2.81;89.72
15674;BME280;7937;48.090;16.212;2023-12-07T10:43:05;98048.56;;;2.74;89.83
15674;BME280;7937;48.090;16.212;2023-12-07T10:46:09;98042.97;;;2.63;90.65
15674;BME280;7937;48.090;16.212;2023-12-07T10:49:15;98027.66;;;2.37;91.90
15674;BME280;7937;48.090;16.212;2023-12-07T10:52:34;98046.69;;;2.39;91.57
15674;BME280;7937;48.090;16.212;2023-12-07T10:55:45;98040.53;;;2.61;90.98
15674;BME280;7937;48.090;16.212;2023-12-07T10:58:49;98047.03;;;2.65;90.77
15674;BME280;7937;48.090;16.212;2023-12-07T11:01:52;98034.59;;;2.74;89.92
15674;BME280;7937;48.090;16.212;2023-12-07T11:04:57;98030.91;;;2.68;90.84
15674;BME280;7937;48.090;16.212;2023-12-07T11:08:06;98039.59;;;2.69;90.80
15674;BME280;7937;48.090;16.212;2023-12-07T11:11:26;98012.59;;;2.45;91.72
15674;BME280;7937;48.090;16.212;2023-12-07T11:14:31;98036.44;;;2.73;90.37
15674;BME280;7937;48.090;16.212;2023-12-07T11:17:51;98038.44;;;2.56;92.14
15674;BME280;7937;48.090;16.212;2023-12-07T11:20:56;98021.94;;;2.48;91.99
15674;BME280;7937;48.090;16.212;2023-12-07T11:24:01;98044.13;;;2.60;91.75
15674;BME280;7937;48.090;16.212;2023-12-07T11:27:04;98036.63;;;2.57;92.08
15674;BME280;7937;48.090;16.212;2023-12-07T11:30:07;98029.63;;;2.64;91.17
15674;BME280;7937;48.090;16.212;2023-12-07T11:33:09;98026.53;;;2.61;91.05
15674;BME280;7937;48.090;16.212;2023-12-07T11:36:14;98026.44;;;2.69;90.03
15674;BME280;7937;48.090;16.212;2023-12-07T11:39:16;98019.66;;;2.59;90.91
15674;BME280;7937;48.090;16.212;2023-12-07T11:42:30;98036.63;;;2.72;89.83
15674;BME280;7937;48.090;16.212;2023-12-07T11:45:39;98032.25;;;2.64;91.02
15674;BME280;7937;48.090;16.212;2023-12-07T11:48:47;98022.19;;;2.68;90.21
15674;BME280;7937;48.090;16.212;2023-12-07T11:51:50;98022.81;;;2.70;89.49
15674;BME280;7937;48.090;16.212;2023-12-07T11:54:52;98031.25;;;2.65;90.06
15674;BME280;7937;48.090;16.212;2023-12-07T11:57:54;98018.00;;;2.73;89.92
15674;BME280;7937;48.090;16.212;2023-12-07T12:00:56;98019.75;;;2.66;90.51
15674;BME280;7937;48.090;16.212;2023-12-07T12:03:59;98032.25;;;2.64;90.46
15674;BME280;7937;48.090;16.212;2023-12-07T12:07:04;98030.38;;;2.58;91.17
15674;BME280;7937;48.090;16.212;2023-12-07T12:10:07;97997.63;;;2.31;91.79
15674;BME280;7937;48.090;16.212;2023-12-07T12:13:09;98031.91;;;2.67;89.80
15674;BME280;7937;48.090;16.212;2023-12-07T12:16:12;98031.72;;;2.54;92.06
15674;BME280;7937;48.090;16.212;2023-12-07T12:19:14;98029.72;;;2.56;91.66
15674;BME280;7937;48.090;16.212;2023-12-07T12:22:29;98017.50;;;2.48;91.40
15674;BME280;7937;48.090;16.212;2023-12-07T12:25:31;98027.09;;;2.56;91.15
15674;BME280;7937;48.090;16.212;2023-12-07T12:28:35;98034.34;;;2.54;91.04
15674;BME280;7937;48.090;16.212;2023-12-07T12:31:43;98051.38;;;2.28;93.13
15674;BME280;7937;48.090;16.212;2023-12-07T12:34:50;98042.50;;;2.29;92.99
15674;BME280;7937;48.090;16.212;2023-12-07T12:37:53;97939.78;;;1.87;91.22
15674;BME280;7937;48.090;16.212;2023-12-07T12:40:57;98037.19;;;2.52;90.83
15674;BME280;7937;48.090;16.212;2023-12-07T12:43:59;98030.28;;;2.51;91.11
15674;BME280;7937;48.090;16.212;2023-12-07T12:47:01;98044.78;;;2.47;91.14
15674;BME280;7937;48.090;16.212;2023-12-07T12:50:03;98043.97;;;2.32;92.22
15674;BME280;7937;48.090;16.212;2023-12-07T12:53:09;98044.06;;;2.53;90.21
15674;BME280;7937;48.090;16.212;2023-12-07T12:56:15;98043.25;;;2.53;90.36
15674;BME280;7937;48.090;16.212;2023-12-07T12:59:17;98049.59;;;2.44;90.87
15674;BME280;7937;48.090;16.212;2023-12-07T13:02:20;98049.94;;;2.41;91.12
15674;BME280;7937;48.090;16.212;2023-12-07T13:05:22;98064.25;;;2.23;92.67
15674;BME280;7937;48.090;16.212;2023-12-07T13:08:25;98049.56;;;2.14;93.41
15674;BME280;7937;48.090;16.212;2023-12-07T13:11:27;98048.03;;;2.49;90.38
15674;BME280;7937;48.090;16.212;2023-12-07T13:14:29;98053.47;;;2.33;91.71
15674;BME280;7937;48.090;16.212;2023-12-07T13:17:33;98044.78;;;2.32;91.43
15674;BME280;7937;48.090;16.212;2023-12-07T13:20:35;98038.84;;;2.01;93.11
15674;BME280;7937;48.090;16.212;2023-12-07T13:23:40;98047.47;;;2.24;92.17
15674;BME280;7937;48.090;16.212;2023-12-07T13:26:42;98049.03;;;2.19;92.98
15674;BME280;7937;48.090;16.212;2023-12-07T13:29:44;98058.56;;;2.35;91.44
15674;BME280;7937;48.090;16.212;2023-12-07T13:32:46;98063.25;;;2.24;92.42
15674;BME280;7937;48.090;16.212;2023-12-07T13:35:50;98067.38;;;2.04;93.56
15674;BME280;7937;48.090;16.212;2023-12-07T13:38:55;98059.75;;;1.94;94.65
15674;BME280;7937;48.090;16.212;2023-12-07T13:41:57;98073.59;;;1.88;94.73
15674;BME280;7937;48.090;16.212;2023-12-07T13:45:03;98061.56;;;1.94;94.24
15674;BME280;7937;48.090;16.212;2023-12-07T13:48:05;98078.00;;;1.73;95.97
15674;BME280;7937;48.090;16.212;2023-12-07T13:51:07;98076.75;;;1.84;95.60
15674;BME280;7937;48.090;16.212;2023-12-07T13:54:10;98083.25;;;1.73;95.99
15674;BME280;7937;48.090;16.212;2023-12-07T13:57:32;98078.09;;;1.79;95.37
15674;BME280;7937;48.090;16.212;2023-12-07T14:00:34;98085.34;;;1.77;95.38
15674;BME280;7937;48.090;16.212;2023-12-07T14:03:36;98095.53;;;1.72;96.16
15674;BME280;7937;48.090;16.212;2023-12-07T14:06:39;98094.53;;;1.50;97.56
15674;BME280;7937;48.090;16.212;2023-12-07T14:09:45;98098.38;;;1.40;98.55
15674;BME280;7937;48.090;16.212;2023-12-07T14:12:58;98079.59;;;1.51;97.38
15674;BME280;7937;48.090;16.212;2023-12-07T14:16:01;98102.69;;;1.33;99.20
15674;BME280;7937;48.090;16.212;2023-12-07T14:19:17;98099.53;;;1.37;99.22
15674;BME280;7937;48.090;16.212;2023-12-07T14:22:19;98100.53;;;1.36;98.89
15674;BME280;7937;48.090;16.212;2023-12-07T14:25:21;98108.00;;;1.24;99.50
15674;BME280;7937;48.090;16.212;2023-12-07T14:28:24;98105.22;;;1.18;100.00
15674;BME280;7937;48.090;16.212;2023-12-07T14:31:26;98116.28;;;1.05;100.00
15674;BME280;7937;48.090;16.212;2023-12-07T14:34:28;98099.91;;;1.34;99.29
15674;BME280;7937;48.090;16.212;2023-12-07T14:37:36;98091.03;;;1.04;100.00
15674;BME280;7937;48.090;16.212;2023-12-07T14:40:38;98124.25;;;1.20;100.00
15674;BME280;7937;48.090;16.212;2023-12-07T14:43:40;98115.69;;;1.26;99.85
15674;BME280;7937;48.090;16.212;2023-12-07T14:46:43;98119.69;;;1.14;100.00
15674;BME280;7937;48.090;16.212;2023-12-07T14:49:45;98120.81;;;1.19;100.00
15674;BME280;7937;48.090;16.212;2023-12-07T14:52:47;98119.84;;;1.12;100.00
15674;BME280;7937;48.090;16.212;2023-12-07T14:55:51;98121.53;;;1.05;100.00
15674;BME280;7937;48.090;16.212;2023-12-07T14:58:53;98118.28;;;0.95;100.00
15674;BME280;7937;48.090;16.212;2023-12-07T15:01:55;98116.34;;;0.89;100.00
15674;BME280;7937;48.090;16.212;2023-12-07T15:04:57;98124.78;;;1.07;100.00
15674;BME280;7937;48.090;16.212;2023-12-07T15:08:00;98128.38;;;1.14;100.00
15674;BME280;7937;48.090;16.212;2023-12-07T15:11:02;98119.19;;;0.71;100.00
15674;BME280;7937;48.090;16.212;2023-12-07T15:14:05;98132.34;;;0.55;100.00
15674;BME280;7937;48.090;16.212;2023-12-07T15:17:08;98125.44;;;0.62;100.00
15674;BME280;7937;48.090;16.212;2023-12-07T15:20:11;98130.34;;;0.65;100.00
15674;BME280;7937;48.090;16.212;2023-12-07T15:23:13;98129.03;;;0.61;100.00
15674;BME280;7937;48.090;16.212;2023-12-07T15:26:15;98139.50;;;0.69;100.00
15674;BME280;7937;48.090;16.212;2023-12-07T15:29:18;98136.59;;;1.03;100.00
15674;BME280;7937;48.090;16.212;2023-12-07T15:32:20;98139.88;;;1.05;100.00
15674;BME280;7937;48.090;16.212;2023-12-07T15:35:23;98146.25;;;1.11;100.00
15674;BME280;7937;48.090;16.212;2023-12-07T15:38:26;98147.25;;;1.10;100.00
15674;BME280;7937;48.090;16.212;2023-12-07T15:41:28;98146.75;;;1.14;100.00
15674;BME280;7937;48.090;16.212;2023-12-07T15:44:30;98153.19;;;1.03;100.00
15674;BME280;7937;48.090;16.212;2023-12-07T15:47:33;98155.66;;;0.97;100.00
15674;BME280;7937;48.090;16.212;2023-12-07T15:50:36;98155.00;;;0.95;100.00
15674;BME280;7937;48.090;16.212;2023-12-07T15:53:38;98146.22;;;0.80;100.00
15674;BME280;7937;48.090;16.212;2023-12-07T15:56:40;98159.47;;;0.78;100.00
15674;BME280;7937;48.090;16.212;2023-12-07T15:59:42;98153.75;;;0.66;100.00
15674;BME280;7937;48.090;16.212;2023-12-07T16:02:45;98155.25;;;0.61;100.00
15674;BME280;7937;48.090;16.212;2023-12-07T16:05:47;98154.94;;;0.56;100.00
15674;BME280;7937;48.090;16.212;2023-12-07T16:08:49;98133.16;;;0.39;100.00
15674;BME280;7937;48.090;16.212;2023-12-07T16:11:51;98160.00;;;0.49;100.00
15674;BME280;7937;48.090;16.212;2023-12-07T16:14:53;98152.50;;;0.46;100.00
15674;BME280;7937;48.090;16.212;2023-12-07T16:17:58;98162.31;;;0.44;100.00
15674;BME280;7937;48.090;16.212;2023-12-07T16:21:00;98161.50;;;0.43;100.00
15674;BME280;7937;48.090;16.212;2023-12-07T16:24:03;98153.63;;;0.43;100.00